sensor_id;sensor_type;location;lat;lon;timestamp;pressure;altitude;pressure_sealevel;temperature;humidity
77360;BME280;66426;51.454;7.266;2023-05-29T00:00:53;100662.88;;;15.06;56.96
77360;BME280;66426;51.454;7.266;2023-05-29T00:01:54;100662.91;;;14.90;57.51
77360;BME280;66426;51.454;7.266;2023-05-29T00:02:55;100662.72;;;14.79;57.84
77360;BME280;66426;51.454;7.266;2023-05-29T00:03:56;100659.88;;;14.66;58.47
77360;BME280;66426;51.454;7.266;2023-05-29T00:04:57;100660.19;;;14.76;58.23
77360;BME280;66426;51.454;7.266;2023-05-29T00:05:58;100663.72;;;14.92;57.77
77360;BME280;66426;51.454;7.266;2023-05-29T00:06:59;100656.22;;;14.81;57.90
77360;BME280;66426;51.454;7.266;2023-05-29T00:08:00;100659.34;;;14.89;58.02
77360;BME280;66426;51.454;7.266;2023-05-29T00:09:01;100663.03;;;14.88;57.85
77360;BME280;66426;51.454;7.266;2023-05-29T00:10:02;100654.44;;;14.96;57.74
77360;BME280;66426;51.454;7.266;2023-05-29T00:11:03;100653.13;;;14.87;58.04
77360;BME280;66426;51.454;7.266;2023-05-29T00:12:05;100658.28;;;14.92;57.80
77360;BME280;66426;51.454;7.266;2023-05-29T00:13:07;100653.56;;;14.96;57.49
77360;BME280;66426;51.454;7.266;2023-05-29T00:14:08;100659.19;;;14.93;57.95
77360;BME280;66426;51.454;7.266;2023-05-29T00:15:14;100655.22;;;14.98;57.90
77360;BME280;66426;51.454;7.266;2023-05-29T00:16:15;100651.19;;;14.75;58.46
77360;BME280;66426;51.454;7.266;2023-05-29T00:17:18;100659.41;;;14.74;58.09
77360;BME280;66426;51.454;7.266;2023-05-29T00:18:19;100661.06;;;14.76;58.18
77360;BME280;66426;51.454;7.266;2023-05-29T00:19:20;100659.34;;;14.43;59.24
77360;BME280;66426;51.454;7.266;2023-05-29T00:20:22;100657.69;;;14.57;59.30
77360;BME280;66426;51.454;7.266;2023-05-29T00:21:23;100663.00;;;14.42;59.68
77360;BME280;66426;51.454;7.266;2023-05-29T00:22:23;100662.66;;;14.49;59.52
77360;BME280;66426;51.454;7.266;2023-05-29T00:23:24;100667.13;;;14.65;59.26
77360;BME280;66426;51.454;7.266;2023-05-29T00:24:25;100663.34;;;14.52;58.89
77360;BME280;66426;51.454;7.266;2023-05-29T00:25:27;100664.09;;;14.56;59.50
77360;BME280;66426;51.454;7.266;2023-05-29T00:26:27;100660.91;;;14.48;59.75
77360;BME280;66426;51.454;7.266;2023-05-29T00:27:28;100662.19;;;14.72;59.03
77360;BME280;66426;51.454;7.266;2023-05-29T00:28:31;100660.81;;;14.49;59.82
77360;BME280;66426;51.454;7.266;2023-05-29T00:29:31;100664.59;;;14.62;59.25
77360;BME280;66426;51.454;7.266;2023-05-29T00:30:33;100665.31;;;14.34;59.86
77360;BME280;66426;51.454;7.266;2023-05-29T00:31:33;100667.16;;;14.34;60.54
77360;BME280;66426;51.454;7.266;2023-05-29T00:32:36;100668.88;;;14.51;59.79
77360;BME280;66426;51.454;7.266;2023-05-29T00:33:37;100666.88;;;14.54;59.15
77360;BME280;66426;51.454;7.266;2023-05-29T00:34:38;100672.03;;;14.27;60.21
77360;BME280;66426;51.454;7.266;2023-05-29T00:35:38;100674.75;;;14.43;60.05
77360;BME280;66426;51.454;7.266;2023-05-29T00:36:40;100674.06;;;14.55;60.18
77360;BME280;66426;51.454;7.266;2023-05-29T00:37:41;100662.56;;;14.50;60.54
77360;BME280;66426;51.454;7.266;2023-05-29T00:38:42;100670.81;;;14.49;60.08
77360;BME280;66426;51.454;7.266;2023-05-29T00:39:43;100672.03;;;14.59;59.85
77360;BME280;66426;51.454;7.266;2023-05-29T00:40:44;100671.84;;;14.62;60.03
77360;BME280;66426;51.454;7.266;2023-05-29T00:41:44;100672.66;;;14.48;60.35
77360;BME280;66426;51.454;7.266;2023-05-29T00:42:45;100673.63;;;14.31;60.61
77360;BME280;66426;51.454;7.266;2023-05-29T00:43:48;100679.66;;;14.05;61.34
77360;BME280;66426;51.454;7.266;2023-05-29T00:44:48;100679.50;;;14.23;61.26
77360;BME280;66426;51.454;7.266;2023-05-29T00:45:50;100689.81;;;14.17;61.15
77360;BME280;66426;51.454;7.266;2023-05-29T00:46:52;100686.56;;;14.26;61.31
77360;BME280;66426;51.454;7.266;2023-05-29T00:47:53;100688.94;;;14.00;62.09
77360;BME280;66426;51.454;7.266;2023-05-29T00:48:54;100691.91;;;14.12;62.12
77360;BME280;66426;51.454;7.266;2023-05-29T00:49:58;100693.66;;;14.13;62.10
77360;BME280;66426;51.454;7.266;2023-05-29T00:50:59;100692.75;;;14.12;62.38
77360;BME280;66426;51.454;7.266;2023-05-29T00:52:01;100693.47;;;14.16;61.72
77360;BME280;66426;51.454;7.266;2023-05-29T00:53:03;100694.00;;;13.91;62.11
77360;BME280;66426;51.454;7.266;2023-05-29T00:54:06;100694.88;;;14.07;62.58
77360;BME280;66426;51.454;7.266;2023-05-29T00:55:09;100698.44;;;13.92;62.81
77360;BME280;66426;51.454;7.266;2023-05-29T00:56:10;100712.28;;;13.19;64.53
77360;BME280;66426;51.454;7.266;2023-05-29T00:57:12;100705.38;;;13.31;64.89
77360;BME280;66426;51.454;7.266;2023-05-29T00:58:14;100707.84;;;13.35;64.97
77360;BME280;66426;51.454;7.266;2023-05-29T00:59:16;100712.22;;;13.71;63.83
77360;BME280;66426;51.454;7.266;2023-05-29T01:00:19;100710.81;;;13.64;64.53
77360;BME280;66426;51.454;7.266;2023-05-29T01:01:21;100714.03;;;12.85;66.20
77360;BME280;66426;51.454;7.266;2023-05-29T01:02:22;100717.75;;;12.83;67.09
77360;BME280;66426;51.454;7.266;2023-05-29T01:03:24;100712.06;;;13.06;66.49
77360;BME280;66426;51.454;7.266;2023-05-29T01:04:26;100710.84;;;13.12;66.37
77360;BME280;66426;51.454;7.266;2023-05-29T01:05:27;100710.91;;;13.45;65.52
77360;BME280;66426;51.454;7.266;2023-05-29T01:06:28;100713.09;;;13.21;65.62
77360;BME280;66426;51.454;7.266;2023-05-29T01:07:30;100712.53;;;12.97;66.09
77360;BME280;66426;51.454;7.266;2023-05-29T01:08:30;100718.66;;;12.83;67.42
77360;BME280;66426;51.454;7.266;2023-05-29T01:09:31;100709.34;;;13.06;66.73
77360;BME280;66426;51.454;7.266;2023-05-29T01:10:34;100712.69;;;13.11;66.53
77360;BME280;66426;51.454;7.266;2023-05-29T01:11:42;100715.25;;;13.32;66.21
77360;BME280;66426;51.454;7.266;2023-05-29T01:12:49;100715.84;;;13.20;66.27
77360;BME280;66426;51.454;7.266;2023-05-29T01:13:51;100711.81;;;13.11;65.96
77360;BME280;66426;51.454;7.266;2023-05-29T01:15:04;100707.91;;;12.99;67.15
77360;BME280;66426;51.454;7.266;2023-05-29T01:16:12;100705.44;;;13.12;66.15
77360;BME280;66426;51.454;7.266;2023-05-29T01:17:21;100713.78;;;13.25;65.63
77360;BME280;66426;51.454;7.266;2023-05-29T01:18:34;100711.41;;;12.66;66.89
77360;BME280;66426;51.454;7.266;2023-05-29T01:19:53;100719.19;;;12.72;67.69
77360;BME280;66426;51.454;7.266;2023-05-29T01:21:04;100711.41;;;13.01;66.65
77360;BME280;66426;51.454;7.266;2023-05-29T01:22:12;100714.66;;;12.37;68.32
77360;BME280;66426;51.454;7.266;2023-05-29T01:23:41;100720.97;;;12.91;67.19
77360;BME280;66426;51.454;7.266;2023-05-29T01:24:56;100712.53;;;13.14;66.11
77360;BME280;66426;51.454;7.266;2023-05-29T01:26:10;100721.44;;;12.82;66.49
77360;BME280;66426;51.454;7.266;2023-05-29T01:27:15;100716.66;;;13.04;65.79
77360;BME280;66426;51.454;7.266;2023-05-29T01:28:20;100725.50;;;12.90;66.09
77360;BME280;66426;51.454;7.266;2023-05-29T01:29:23;100723.75;;;12.89;65.69
77360;BME280;66426;51.454;7.266;2023-05-29T01:30:26;100726.66;;;12.85;65.94
77360;BME280;66426;51.454;7.266;2023-05-29T01:31:28;100727.28;;;12.72;66.08
77360;BME280;66426;51.454;7.266;2023-05-29T01:32:30;100728.28;;;12.89;65.82
77360;BME280;66426;51.454;7.266;2023-05-29T01:33:32;100729.16;;;13.07;65.14
77360;BME280;66426;51.454;7.266;2023-05-29T01:34:33;100732.38;;;12.61;66.25
77360;BME280;66426;51.454;7.266;2023-05-29T01:35:34;100739.19;;;12.51;66.83
77360;BME280;66426;51.454;7.266;2023-05-29T01:36:35;100736.41;;;12.52;66.57
77360;BME280;66426;51.454;7.266;2023-05-29T01:37:36;100737.13;;;12.56;66.64
77360;BME280;66426;51.454;7.266;2023-05-29T01:38:37;100735.03;;;12.44;66.01
77360;BME280;66426;51.454;7.266;2023-05-29T01:39:38;100736.34;;;12.54;66.48
77360;BME280;66426;51.454;7.266;2023-05-29T01:40:39;100740.69;;;12.76;66.03
77360;BME280;66426;51.454;7.266;2023-05-29T01:41:41;100740.41;;;12.80;65.50
77360;BME280;66426;51.454;7.266;2023-05-29T01:42:45;100737.19;;;12.73;66.01
77360;BME280;66426;51.454;7.266;2023-05-29T01:43:47;100737.59;;;12.28;66.90
77360;BME280;66426;51.454;7.266;2023-05-29T01:44:48;100738.28;;;12.33;66.80
77360;BME280;66426;51.454;7.266;2023-05-29T01:45:50;100744.22;;;12.59;65.72
77360;BME280;66426;51.454;7.266;2023-05-29T01:46:51;100740.03;;;11.96;66.99
77360;BME280;66426;51.454;7.266;2023-05-29T01:47:53;100739.91;;;12.18;67.62
77360;BME280;66426;51.454;7.266;2023-05-29T01:48:54;100738.16;;;12.54;65.67
77360;BME280;66426;51.454;7.266;2023-05-29T01:49:55;100740.28;;;12.28;66.51
77360;BME280;66426;51.454;7.266;2023-05-29T01:50:57;100738.03;;;12.38;66.74
77360;BME280;66426;51.454;7.266;2023-05-29T01:51:58;100736.06;;;12.22;66.09
77360;BME280;66426;51.454;7.266;2023-05-29T01:52:59;100737.91;;;12.22;66.64
77360;BME280;66426;51.454;7.266;2023-05-29T01:54:00;100738.63;;;12.25;66.44
77360;BME280;66426;51.454;7.266;2023-05-29T01:55:02;100737.88;;;12.77;65.17
77360;BME280;66426;51.454;7.266;2023-05-29T01:56:04;100738.47;;;12.84;65.17
77360;BME280;66426;51.454;7.266;2023-05-29T01:57:05;100746.56;;;12.84;64.77
77360;BME280;66426;51.454;7.266;2023-05-29T01:58:08;100743.38;;;12.76;64.83
77360;BME280;66426;51.454;7.266;2023-05-29T01:59:12;100752.75;;;12.68;65.00
77360;BME280;66426;51.454;7.266;2023-05-29T02:00:15;100743.44;;;12.38;65.28
77360;BME280;66426;51.454;7.266;2023-05-29T02:01:17;100748.44;;;12.64;65.14
77360;BME280;66426;51.454;7.266;2023-05-29T02:02:18;100747.44;;;12.48;65.47
77360;BME280;66426;51.454;7.266;2023-05-29T02:03:18;100750.88;;;12.33;66.40
77360;BME280;66426;51.454;7.266;2023-05-29T02:04:19;100746.06;;;12.58;65.31
77360;BME280;66426;51.454;7.266;2023-05-29T02:05:20;100749.41;;;12.63;65.30
77360;BME280;66426;51.454;7.266;2023-05-29T02:06:22;100742.50;;;12.39;65.90
77360;BME280;66426;51.454;7.266;2023-05-29T02:07:23;100751.84;;;12.13;66.57
77360;BME280;66426;51.454;7.266;2023-05-29T02:08:24;100749.75;;;12.19;66.28
77360;BME280;66426;51.454;7.266;2023-05-29T02:09:25;100746.22;;;12.17;67.18
77360;BME280;66426;51.454;7.266;2023-05-29T02:10:26;100759.53;;;12.22;66.44
77360;BME280;66426;51.454;7.266;2023-05-29T02:11:27;100755.78;;;12.05;67.52
77360;BME280;66426;51.454;7.266;2023-05-29T02:12:28;100747.16;;;12.35;66.68
77360;BME280;66426;51.454;7.266;2023-05-29T02:13:31;100753.09;;;12.43;65.79
77360;BME280;66426;51.454;7.266;2023-05-29T02:14:31;100746.38;;;12.33;65.92
77360;BME280;66426;51.454;7.266;2023-05-29T02:15:33;100743.06;;;12.45;65.52
77360;BME280;66426;51.454;7.266;2023-05-29T02:16:34;100747.25;;;12.34;66.02
77360;BME280;66426;51.454;7.266;2023-05-29T02:17:35;100744.94;;;12.26;66.70
77360;BME280;66426;51.454;7.266;2023-05-29T02:18:36;100752.41;;;12.00;67.00
77360;BME280;66426;51.454;7.266;2023-05-29T02:19:37;100742.56;;;12.37;66.27
77360;BME280;66426;51.454;7.266;2023-05-29T02:20:38;100757.19;;;12.33;66.03
77360;BME280;66426;51.454;7.266;2023-05-29T02:21:39;100745.66;;;12.11;66.48
77360;BME280;66426;51.454;7.266;2023-05-29T02:22:43;100745.00;;;12.24;66.97
77360;BME280;66426;51.454;7.266;2023-05-29T02:23:44;100753.78;;;12.11;67.50
77360;BME280;66426;51.454;7.266;2023-05-29T02:24:45;100753.53;;;12.34;66.20
77360;BME280;66426;51.454;7.266;2023-05-29T02:25:46;100759.09;;;12.31;66.33
77360;BME280;66426;51.454;7.266;2023-05-29T02:26:48;100758.28;;;12.29;67.00
77360;BME280;66426;51.454;7.266;2023-05-29T02:27:50;100758.56;;;12.42;66.12
77360;BME280;66426;51.454;7.266;2023-05-29T02:28:52;100750.97;;;12.31;66.09
77360;BME280;66426;51.454;7.266;2023-05-29T02:29:53;100753.09;;;12.43;65.84
77360;BME280;66426;51.454;7.266;2023-05-29T02:30:54;100753.31;;;12.39;65.82
77360;BME280;66426;51.454;7.266;2023-05-29T02:31:55;100747.91;;;12.39;65.82
77360;BME280;66426;51.454;7.266;2023-05-29T02:32:56;100747.69;;;12.05;67.03
77360;BME280;66426;51.454;7.266;2023-05-29T02:33:57;100745.44;;;11.96;67.78
77360;BME280;66426;51.454;7.266;2023-05-29T02:34:58;100741.78;;;12.16;67.02
77360;BME280;66426;51.454;7.266;2023-05-29T02:35:59;100746.16;;;12.00;67.05
77360;BME280;66426;51.454;7.266;2023-05-29T02:37:00;100752.66;;;12.34;66.41
77360;BME280;66426;51.454;7.266;2023-05-29T02:38:01;100753.56;;;12.51;66.11
77360;BME280;66426;51.454;7.266;2023-05-29T02:39:02;100754.28;;;12.19;66.70
77360;BME280;66426;51.454;7.266;2023-05-29T02:40:04;100755.94;;;12.02;67.43
77360;BME280;66426;51.454;7.266;2023-05-29T02:41:07;100754.44;;;12.16;67.53
77360;BME280;66426;51.454;7.266;2023-05-29T02:42:08;100758.00;;;12.16;67.30
77360;BME280;66426;51.454;7.266;2023-05-29T02:43:09;100754.09;;;12.03;67.74
77360;BME280;66426;51.454;7.266;2023-05-29T02:44:11;100757.34;;;12.11;67.45
77360;BME280;66426;51.454;7.266;2023-05-29T02:45:12;100761.94;;;12.09;67.74
77360;BME280;66426;51.454;7.266;2023-05-29T02:46:13;100756.22;;;12.34;66.85
77360;BME280;66426;51.454;7.266;2023-05-29T02:47:14;100760.41;;;12.03;67.56
77360;BME280;66426;51.454;7.266;2023-05-29T02:48:15;100761.53;;;11.98;68.00
77360;BME280;66426;51.454;7.266;2023-05-29T02:49:16;100754.25;;;12.38;66.91
77360;BME280;66426;51.454;7.266;2023-05-29T02:50:17;100759.44;;;12.04;67.49
77360;BME280;66426;51.454;7.266;2023-05-29T02:51:18;100752.28;;;11.64;68.16
77360;BME280;66426;51.454;7.266;2023-05-29T02:52:19;100753.88;;;11.68;68.72
77360;BME280;66426;51.454;7.266;2023-05-29T02:53:20;100759.44;;;11.65;68.65
77360;BME280;66426;51.454;7.266;2023-05-29T02:54:21;100764.22;;;11.79;68.79
77360;BME280;66426;51.454;7.266;2023-05-29T02:55:22;100763.69;;;11.71;68.70
77360;BME280;66426;51.454;7.266;2023-05-29T02:56:22;100758.56;;;12.04;68.73
77360;BME280;66426;51.454;7.266;2023-05-29T02:57:24;100761.09;;;11.68;68.86
77360;BME280;66426;51.454;7.266;2023-05-29T02:58:25;100762.66;;;11.94;68.81
77360;BME280;66426;51.454;7.266;2023-05-29T02:59:29;100762.06;;;11.87;68.57
77360;BME280;66426;51.454;7.266;2023-05-29T03:00:30;100762.66;;;11.94;68.59
77360;BME280;66426;51.454;7.266;2023-05-29T03:01:31;100766.75;;;11.82;68.95
77360;BME280;66426;51.454;7.266;2023-05-29T03:02:33;100763.69;;;11.71;68.94
77360;BME280;66426;51.454;7.266;2023-05-29T03:03:35;100759.97;;;11.94;68.38
77360;BME280;66426;51.454;7.266;2023-05-29T03:04:36;100764.91;;;11.63;69.14
77360;BME280;66426;51.454;7.266;2023-05-29T03:05:37;100751.91;;;11.92;68.39
77360;BME280;66426;51.454;7.266;2023-05-29T03:06:38;100759.47;;;11.84;68.72
77360;BME280;66426;51.454;7.266;2023-05-29T03:07:39;100761.03;;;11.90;68.44
77360;BME280;66426;51.454;7.266;2023-05-29T03:08:39;100754.53;;;12.13;67.57
77360;BME280;66426;51.454;7.266;2023-05-29T03:09:40;100764.75;;;12.25;67.35
77360;BME280;66426;51.454;7.266;2023-05-29T03:10:41;100766.53;;;12.26;67.02
77360;BME280;66426;51.454;7.266;2023-05-29T03:11:44;100767.31;;;12.28;67.62
77360;BME280;66426;51.454;7.266;2023-05-29T03:12:46;100768.50;;;12.22;67.19
77360;BME280;66426;51.454;7.266;2023-05-29T03:13:47;100763.69;;;12.29;67.40
77360;BME280;66426;51.454;7.266;2023-05-29T03:14:51;100762.94;;;12.06;67.67
77360;BME280;66426;51.454;7.266;2023-05-29T03:15:52;100771.56;;;12.15;68.16
77360;BME280;66426;51.454;7.266;2023-05-29T03:16:57;100765.56;;;12.08;68.06
77360;BME280;66426;51.454;7.266;2023-05-29T03:17:59;100768.59;;;12.21;67.56
77360;BME280;66426;51.454;7.266;2023-05-29T03:19:00;100770.63;;;12.16;67.36
77360;BME280;66426;51.454;7.266;2023-05-29T03:20:01;100774.91;;;12.20;67.28
77360;BME280;66426;51.454;7.266;2023-05-29T03:21:06;100773.41;;;11.54;69.07
77360;BME280;66426;51.454;7.266;2023-05-29T03:22:08;100768.38;;;11.86;69.23
77360;BME280;66426;51.454;7.266;2023-05-29T03:23:09;100780.53;;;11.96;68.68
77360;BME280;66426;51.454;7.266;2023-05-29T03:24:10;100773.78;;;11.65;69.73
77360;BME280;66426;51.454;7.266;2023-05-29T03:25:11;100774.50;;;11.50;69.79
77360;BME280;66426;51.454;7.266;2023-05-29T03:26:12;100777.19;;;11.09;70.94
77360;BME280;66426;51.454;7.266;2023-05-29T03:27:13;100773.97;;;11.21;70.93
77360;BME280;66426;51.454;7.266;2023-05-29T03:28:15;100776.00;;;11.37;70.76
77360;BME280;66426;51.454;7.266;2023-05-29T03:29:16;100764.06;;;11.82;69.61
77360;BME280;66426;51.454;7.266;2023-05-29T03:30:18;100767.16;;;11.73;69.40
77360;BME280;66426;51.454;7.266;2023-05-29T03:31:21;100767.06;;;11.76;69.70
77360;BME280;66426;51.454;7.266;2023-05-29T03:32:22;100765.50;;;11.91;68.42
77360;BME280;66426;51.454;7.266;2023-05-29T03:33:23;100769.34;;;11.64;69.57
77360;BME280;66426;51.454;7.266;2023-05-29T03:34:24;100765.53;;;11.50;69.99
77360;BME280;66426;51.454;7.266;2023-05-29T03:35:24;100771.94;;;11.47;70.72
77360;BME280;66426;51.454;7.266;2023-05-29T03:36:25;100757.03;;;11.78;69.70
77360;BME280;66426;51.454;7.266;2023-05-29T03:37:27;100764.75;;;11.66;70.00
77360;BME280;66426;51.454;7.266;2023-05-29T03:38:28;100757.13;;;11.76;69.77
77360;BME280;66426;51.454;7.266;2023-05-29T03:39:29;100759.50;;;12.03;68.75
77360;BME280;66426;51.454;7.266;2023-05-29T03:40:30;100760.63;;;11.39;69.78
77360;BME280;66426;51.454;7.266;2023-05-29T03:41:30;100769.38;;;11.23;70.71
77360;BME280;66426;51.454;7.266;2023-05-29T03:42:31;100764.91;;;11.02;71.63
77360;BME280;66426;51.454;7.266;2023-05-29T03:43:32;100763.97;;;11.44;70.73
77360;BME280;66426;51.454;7.266;2023-05-29T03:44:33;100765.13;;;11.59;70.57
77360;BME280;66426;51.454;7.266;2023-05-29T03:45:35;100756.38;;;11.93;69.23
77360;BME280;66426;51.454;7.266;2023-05-29T03:46:36;100760.75;;;11.75;69.52
77360;BME280;66426;51.454;7.266;2023-05-29T03:47:37;100764.63;;;11.70;69.91
77360;BME280;66426;51.454;7.266;2023-05-29T03:48:38;100763.78;;;11.88;69.46
77360;BME280;66426;51.454;7.266;2023-05-29T03:49:39;100765.44;;;11.72;69.24
77360;BME280;66426;51.454;7.266;2023-05-29T03:50:40;100767.38;;;11.68;69.93
77360;BME280;66426;51.454;7.266;2023-05-29T03:51:41;100766.69;;;11.83;69.31
77360;BME280;66426;51.454;7.266;2023-05-29T03:52:42;100769.19;;;11.88;69.15
77360;BME280;66426;51.454;7.266;2023-05-29T03:53:43;100772.09;;;11.83;68.87
77360;BME280;66426;51.454;7.266;2023-05-29T03:54:44;100783.19;;;11.57;69.92
77360;BME280;66426;51.454;7.266;2023-05-29T03:55:45;100777.75;;;11.77;69.52
77360;BME280;66426;51.454;7.266;2023-05-29T03:56:46;100780.09;;;11.86;68.83
77360;BME280;66426;51.454;7.266;2023-05-29T03:57:47;100781.63;;;11.72;69.65
77360;BME280;66426;51.454;7.266;2023-05-29T03:58:48;100780.59;;;11.74;69.87
77360;BME280;66426;51.454;7.266;2023-05-29T03:59:49;100781.31;;;11.59;70.04
77360;BME280;66426;51.454;7.266;2023-05-29T04:00:51;100783.59;;;11.48;70.26
77360;BME280;66426;51.454;7.266;2023-05-29T04:01:52;100788.59;;;11.57;69.85
77360;BME280;66426;51.454;7.266;2023-05-29T04:02:55;100787.97;;;11.50;70.49
77360;BME280;66426;51.454;7.266;2023-05-29T04:03:56;100789.88;;;11.69;70.18
77360;BME280;66426;51.454;7.266;2023-05-29T04:04:56;100786.75;;;11.98;68.87
77360;BME280;66426;51.454;7.266;2023-05-29T04:05:57;100791.78;;;11.85;68.87
77360;BME280;66426;51.454;7.266;2023-05-29T04:06:58;100794.72;;;11.81;69.62
77360;BME280;66426;51.454;7.266;2023-05-29T04:08:00;100794.31;;;11.70;69.77
77360;BME280;66426;51.454;7.266;2023-05-29T04:09:01;100790.13;;;11.62;69.67
77360;BME280;66426;51.454;7.266;2023-05-29T04:10:02;100793.66;;;11.44;70.58
77360;BME280;66426;51.454;7.266;2023-05-29T04:11:03;100794.38;;;11.27;70.74
77360;BME280;66426;51.454;7.266;2023-05-29T04:12:06;100802.97;;;11.16;71.42
77360;BME280;66426;51.454;7.266;2023-05-29T04:13:07;100802.22;;;11.33;71.47
77360;BME280;66426;51.454;7.266;2023-05-29T04:14:08;100795.00;;;11.13;71.60
77360;BME280;66426;51.454;7.266;2023-05-29T04:15:09;100790.75;;;11.49;71.00
77360;BME280;66426;51.454;7.266;2023-05-29T04:16:11;100790.09;;;11.43;71.07
77360;BME280;66426;51.454;7.266;2023-05-29T04:17:12;100797.22;;;11.65;70.38
77360;BME280;66426;51.454;7.266;2023-05-29T04:18:13;100795.31;;;11.67;69.43
77360;BME280;66426;51.454;7.266;2023-05-29T04:19:14;100796.00;;;11.72;69.88
77360;BME280;66426;51.454;7.266;2023-05-29T04:20:15;100797.47;;;11.79;69.42
77360;BME280;66426;51.454;7.266;2023-05-29T04:21:16;100798.34;;;11.80;69.32
77360;BME280;66426;51.454;7.266;2023-05-29T04:22:17;100801.13;;;11.58;69.71
77360;BME280;66426;51.454;7.266;2023-05-29T04:23:18;100800.75;;;11.47;70.31
77360;BME280;66426;51.454;7.266;2023-05-29T04:24:19;100793.13;;;11.56;70.53
77360;BME280;66426;51.454;7.266;2023-05-29T04:25:20;100794.41;;;11.89;69.53
77360;BME280;66426;51.454;7.266;2023-05-29T04:26:21;100798.19;;;11.83;69.16
77360;BME280;66426;51.454;7.266;2023-05-29T04:27:25;100791.22;;;11.79;69.71
77360;BME280;66426;51.454;7.266;2023-05-29T04:28:26;100803.53;;;11.84;69.25
77360;BME280;66426;51.454;7.266;2023-05-29T04:29:28;100801.28;;;11.55;70.17
77360;BME280;66426;51.454;7.266;2023-05-29T04:30:29;100796.75;;;11.55;70.31
77360;BME280;66426;51.454;7.266;2023-05-29T04:31:32;100797.28;;;11.43;70.62
77360;BME280;66426;51.454;7.266;2023-05-29T04:32:33;100795.44;;;11.23;71.23
77360;BME280;66426;51.454;7.266;2023-05-29T04:33:34;100790.41;;;11.15;71.36
77360;BME280;66426;51.454;7.266;2023-05-29T04:34:37;100793.56;;;11.45;71.50
77360;BME280;66426;51.454;7.266;2023-05-29T04:35:39;100788.50;;;11.79;69.88
77360;BME280;66426;51.454;7.266;2023-05-29T04:36:44;100791.75;;;11.66;70.46
77360;BME280;66426;51.454;7.266;2023-05-29T04:37:45;100793.59;;;11.86;70.13
77360;BME280;66426;51.454;7.266;2023-05-29T04:38:46;100784.81;;;12.00;69.35
77360;BME280;66426;51.454;7.266;2023-05-29T04:39:48;100784.41;;;11.91;69.69
77360;BME280;66426;51.454;7.266;2023-05-29T04:40:49;100787.09;;;11.70;70.24
77360;BME280;66426;51.454;7.266;2023-05-29T04:41:51;100788.66;;;11.76;70.46
77360;BME280;66426;51.454;7.266;2023-05-29T04:42:52;100791.75;;;11.66;70.62
77360;BME280;66426;51.454;7.266;2023-05-29T04:43:53;100792.88;;;11.81;70.20
77360;BME280;66426;51.454;7.266;2023-05-29T04:44:56;100796.94;;;11.92;69.61
77360;BME280;66426;51.454;7.266;2023-05-29T04:45:56;100802.56;;;11.87;70.01
77360;BME280;66426;51.454;7.266;2023-05-29T04:47:00;100802.22;;;11.74;70.12
77360;BME280;66426;51.454;7.266;2023-05-29T04:48:04;100808.28;;;11.79;70.29
77360;BME280;66426;51.454;7.266;2023-05-29T04:49:05;100797.88;;;11.70;70.27
77360;BME280;66426;51.454;7.266;2023-05-29T04:50:06;100811.84;;;11.80;69.96
77360;BME280;66426;51.454;7.266;2023-05-29T04:51:07;100804.25;;;11.69;69.94
77360;BME280;66426;51.454;7.266;2023-05-29T04:52:11;100807.75;;;11.71;70.99
77360;BME280;66426;51.454;7.266;2023-05-29T04:53:12;100814.91;;;11.52;70.78
77360;BME280;66426;51.454;7.266;2023-05-29T04:54:13;100817.94;;;11.64;70.42
77360;BME280;66426;51.454;7.266;2023-05-29T04:55:14;100820.38;;;11.71;70.37
77360;BME280;66426;51.454;7.266;2023-05-29T04:56:15;100815.44;;;11.60;70.60
77360;BME280;66426;51.454;7.266;2023-05-29T04:57:16;100817.41;;;11.36;71.04
77360;BME280;66426;51.454;7.266;2023-05-29T04:58:17;100818.22;;;11.58;70.45
77360;BME280;66426;51.454;7.266;2023-05-29T04:59:18;100822.78;;;11.97;69.72
77360;BME280;66426;51.454;7.266;2023-05-29T05:00:19;100815.84;;;11.71;70.10
77360;BME280;66426;51.454;7.266;2023-05-29T05:01:20;100813.06;;;11.73;70.01
77360;BME280;66426;51.454;7.266;2023-05-29T05:02:22;100821.59;;;11.63;70.36
77360;BME280;66426;51.454;7.266;2023-05-29T05:03:23;100826.81;;;11.89;69.44
77360;BME280;66426;51.454;7.266;2023-05-29T05:04:26;100822.72;;;11.78;69.95
77360;BME280;66426;51.454;7.266;2023-05-29T05:05:26;100823.34;;;11.64;70.27
77360;BME280;66426;51.454;7.266;2023-05-29T05:06:27;100820.28;;;11.72;69.83
77360;BME280;66426;51.454;7.266;2023-05-29T05:07:29;100821.91;;;11.76;69.58
77360;BME280;66426;51.454;7.266;2023-05-29T05:08:30;100824.00;;;11.49;70.86
77360;BME280;66426;51.454;7.266;2023-05-29T05:09:33;100833.78;;;11.52;70.42
77360;BME280;66426;51.454;7.266;2023-05-29T05:10:33;100833.03;;;11.48;70.36
77360;BME280;66426;51.454;7.266;2023-05-29T05:11:34;100830.69;;;11.81;70.03
77360;BME280;66426;51.454;7.266;2023-05-29T05:12:35;100833.16;;;11.65;70.76
77360;BME280;66426;51.454;7.266;2023-05-29T05:13:37;100830.03;;;11.56;70.76
77360;BME280;66426;51.454;7.266;2023-05-29T05:14:38;100829.28;;;11.52;70.75
77360;BME280;66426;51.454;7.266;2023-05-29T05:15:39;100828.88;;;11.61;70.72
77360;BME280;66426;51.454;7.266;2023-05-29T05:16:39;100836.84;;;11.64;71.11
77360;BME280;66426;51.454;7.266;2023-05-29T05:17:42;100835.19;;;11.60;70.83
77360;BME280;66426;51.454;7.266;2023-05-29T05:18:43;100837.25;;;11.76;70.00
77360;BME280;66426;51.454;7.266;2023-05-29T05:19:44;100840.88;;;11.75;70.05
77360;BME280;66426;51.454;7.266;2023-05-29T05:20:45;100842.66;;;11.96;69.68
77360;BME280;66426;51.454;7.266;2023-05-29T05:21:46;100836.16;;;11.59;70.10
77360;BME280;66426;51.454;7.266;2023-05-29T05:22:47;100845.25;;;11.98;70.21
77360;BME280;66426;51.454;7.266;2023-05-29T05:23:48;100844.03;;;11.84;70.22